sensor_id;sensor_type;location;lat;lon;timestamp;temperature;humidity
7461;DHT22;6757;52.258;12.840;2023-01-01T00:01:45;15.70;99.90
7461;DHT22;6757;52.258;12.840;2023-01-01T00:04:13;15.70;99.90
7461;DHT22;6757;52.258;12.840;2023-01-01T00:06:41;15.70;99.90
7461;DHT22;6757;52.258;12.840;2023-01-01T00:09:08;15.60;99.90
7461;DHT22;6757;52.258;12.840;2023-01-01T00:11:53;15.60;99.90
7461;DHT22;6757;52.258;12.840;2023-01-01T00:14:21;15.70;99.90
7461;DHT22;6757;52.258;12.840;2023-01-01T00:16:48;15.70;99.90
7461;DHT22;6757;52.258;12.840;2023-01-01T00:19:15;15.70;99.90
7461;DHT22;6757;52.258;12.840;2023-01-01T00:21:42;15.70;99.90
7461;DHT22;6757;52.258;12.840;2023-01-01T00:24:11;15.70;99.90
7461;DHT22;6757;52.258;12.840;2023-01-01T00:26:38;15.70;99.90
7461;DHT22;6757;52.258;12.840;2023-01-01T00:29:05;15.70;99.90
7461;DHT22;6757;52.258;12.840;2023-01-01T00:31:33;15.70;99.90
7461;DHT22;6757;52.258;12.840;2023-01-01T00:34:00;15.80;99.90
7461;DHT22;6757;52.258;12.840;2023-01-01T00:36:27;15.70;99.90
7461;DHT22;6757;52.258;12.840;2023-01-01T00:38:55;15.70;99.90
7461;DHT22;6757;52.258;12.840;2023-01-01T00:41:22;15.70;99.90
7461;DHT22;6757;52.258;12.840;2023-01-01T00:43:49;15.70;99.90
7461;DHT22;6757;52.258;12.840;2023-01-01T00:46:17;15.70;99.90
7461;DHT22;6757;52.258;12.840;2023-01-01T00:48:45;15.70;99.90
7461;DHT22;6757;52.258;12.840;2023-01-01T00:51:12;15.70;99.90
7461;DHT22;6757;52.258;12.840;2023-01-01T00:53:39;15.70;99.90
7461;DHT22;6757;52.258;12.840;2023-01-01T00:56:06;15.70;99.90
7461;DHT22;6757;52.258;12.840;2023-01-01T00:58:33;15.70;99.90
7461;DHT22;6757;52.258;12.840;2023-01-01T01:01:00;15.70;99.90
7461;DHT22;6757;52.258;12.840;2023-01-01T01:03:27;15.60;99.90
7461;DHT22;6757;52.258;12.840;2023-01-01T01:05:57;15.60;99.90
7461;DHT22;6757;52.258;12.840;2023-01-01T01:08:26;15.60;99.90
7461;DHT22;6757;52.258;12.840;2023-01-01T01:10:53;15.70;99.90
7461;DHT22;6757;52.258;12.840;2023-01-01T01:13:21;15.60;99.90
7461;DHT22;6757;52.258;12.840;2023-01-01T01:15:48;15.60;99.90
7461;DHT22;6757;52.258;12.840;2023-01-01T01:18:15;15.60;99.90
7461;DHT22;6757;52.258;12.840;2023-01-01T01:20:49;15.60;99.90
7461;DHT22;6757;52.258;12.840;2023-01-01T01:23:19;15.60;99.90
7461;DHT22;6757;52.258;12.840;2023-01-01T01:25:46;15.50;99.90
7461;DHT22;6757;52.258;12.840;2023-01-01T01:28:13;15.50;99.90
7461;DHT22;6757;52.258;12.840;2023-01-01T01:30:40;15.50;99.90
7461;DHT22;6757;52.258;12.840;2023-01-01T01:33:07;15.50;99.90
7461;DHT22;6757;52.258;12.840;2023-01-01T01:35:34;15.50;99.90
7461;DHT22;6757;52.258;12.840;2023-01-01T01:38:01;15.50;99.90
7461;DHT22;6757;52.258;12.840;2023-01-01T01:40:30;15.50;99.90
7461;DHT22;6757;52.258;12.840;2023-01-01T01:42:56;15.40;99.90
7461;DHT22;6757;52.258;12.840;2023-01-01T01:45:23;15.50;99.90
7461;DHT22;6757;52.258;12.840;2023-01-01T01:47:52;15.40;99.90
7461;DHT22;6757;52.258;12.840;2023-01-01T01:50:24;15.40;99.90
7461;DHT22;6757;52.258;12.840;2023-01-01T01:53:01;15.40;99.90
7461;DHT22;6757;52.258;12.840;2023-01-01T01:55:34;15.40;99.90
7461;DHT22;6757;52.258;12.840;2023-01-01T01:58:03;15.40;99.90
7461;DHT22;6757;52.258;12.840;2023-01-01T02:00:31;15.30;99.90
7461;DHT22;6757;52.258;12.840;2023-01-01T02:03:01;15.30;99.90
7461;DHT22;6757;52.258;12.840;2023-01-01T02:05:30;15.30;99.90
7461;DHT22;6757;52.258;12.840;2023-01-01T02:07:59;15.30;99.90
7461;DHT22;6757;52.258;12.840;2023-01-01T02:10:26;15.30;99.90
7461;DHT22;6757;52.258;12.840;2023-01-01T02:12:55;15.20;99.90
7461;DHT22;6757;52.258;12.840;2023-01-01T02:15:24;15.20;99.90
7461;DHT22;6757;52.258;12.840;2023-01-01T02:18:00;15.20;99.90
7461;DHT22;6757;52.258;12.840;2023-01-01T02:20:38;15.20;99.90
7461;DHT22;6757;52.258;12.840;2023-01-01T02:23:49;15.20;99.90
7461;DHT22;6757;52.258;12.840;2023-01-01T02:29:29;15.20;99.90
7461;DHT22;6757;52.258;12.840;2023-01-01T02:32:03;15.20;99.90
7461;DHT22;6757;52.258;12.840;2023-01-01T02:34:36;15.20;99.90
7461;DHT22;6757;52.258;12.840;2023-01-01T02:37:05;15.20;99.90
7461;DHT22;6757;52.258;12.840;2023-01-01T02:39:36;15.20;99.90
7461;DHT22;6757;52.258;12.840;2023-01-01T02:42:06;15.20;99.90
7461;DHT22;6757;52.258;12.840;2023-01-01T02:44:38;15.20;99.90
7461;DHT22;6757;52.258;12.840;2023-01-01T02:47:09;15.20;99.90
7461;DHT22;6757;52.258;12.840;2023-01-01T02:49:44;15.20;99.90
7461;DHT22;6757;52.258;12.840;2023-01-01T02:52:24;15.20;99.90
7461;DHT22;6757;52.258;12.840;2023-01-01T02:55:06;15.10;99.90
7461;DHT22;6757;52.258;12.840;2023-01-01T02:57:40;15.10;99.90
7461;DHT22;6757;52.258;12.840;2023-01-01T03:00:13;15.10;99.90
7461;DHT22;6757;52.258;12.840;2023-01-01T03:02:52;15.10;99.90
7461;DHT22;6757;52.258;12.840;2023-01-01T03:05:29;15.10;99.90
7461;DHT22;6757;52.258;12.840;2023-01-01T03:08:05;15.10;99.90
7461;DHT22;6757;52.258;12.840;2023-01-01T03:10:41;15.00;99.90
7461;DHT22;6757;52.258;12.840;2023-01-01T03:13:16;15.00;99.90
7461;DHT22;6757;52.258;12.840;2023-01-01T03:15:54;15.00;99.90
7461;DHT22;6757;52.258;12.840;2023-01-01T03:18:27;15.00;99.90
7461;DHT22;6757;52.258;12.840;2023-01-01T03:20:58;14.90;99.90
7461;DHT22;6757;52.258;12.840;2023-01-01T03:23:28;14.90;99.90
7461;DHT22;6757;52.258;12.840;2023-01-01T03:26:03;14.90;99.90
7461;DHT22;6757;52.258;12.840;2023-01-01T03:28:35;14.90;99.90
7461;DHT22;6757;52.258;12.840;2023-01-01T03:31:05;14.80;99.90
7461;DHT22;6757;52.258;12.840;2023-01-01T03:33:36;14.90;99.90
7461;DHT22;6757;52.258;12.840;2023-01-01T03:36:07;14.80;99.90
7461;DHT22;6757;52.258;12.840;2023-01-01T03:38:39;14.80;99.90
7461;DHT22;6757;52.258;12.840;2023-01-01T03:41:12;14.80;99.90
7461;DHT22;6757;52.258;12.840;2023-01-01T03:43:45;14.70;99.90
7461;DHT22;6757;52.258;12.840;2023-01-01T03:46:21;14.70;99.90
7461;DHT22;6757;52.258;12.840;2023-01-01T03:48:50;14.70;99.90
7461;DHT22;6757;52.258;12.840;2023-01-01T03:51:28;14.70;99.90
7461;DHT22;6757;52.258;12.840;2023-01-01T03:54:07;14.70;99.90
7461;DHT22;6757;52.258;12.840;2023-01-01T03:56:42;14.70;99.90
7461;DHT22;6757;52.258;12.840;2023-01-01T03:59:15;14.60;99.90
7461;DHT22;6757;52.258;12.840;2023-01-01T04:01:47;14.60;99.90
7461;DHT22;6757;52.258;12.840;2023-01-01T04:04:16;14.60;99.90
7461;DHT22;6757;52.258;12.840;2023-01-01T04:06:44;14.60;99.90
7461;DHT22;6757;52.258;12.840;2023-01-01T04:09:16;14.60;99.90
7461;DHT22;6757;52.258;12.840;2023-01-01T04:11:54;14.60;99.90
7461;DHT22;6757;52.258;12.840;2023-01-01T04:14:30;14.50;99.90
7461;DHT22;6757;52.258;12.840;2023-01-01T04:17:02;14.50;99.90
7461;DHT22;6757;52.258;12.840;2023-01-01T04:19:30;14.50;99.90
7461;DHT22;6757;52.258;12.840;2023-01-01T04:21:58;14.50;99.90
7461;DHT22;6757;52.258;12.840;2023-01-01T04:24:25;14.50;99.90
7461;DHT22;6757;52.258;12.840;2023-01-01T04:26:52;14.50;99.90
7461;DHT22;6757;52.258;12.840;2023-01-01T04:29:20;14.40;99.90
7461;DHT22;6757;52.258;12.840;2023-01-01T04:31:48;14.40;99.90
7461;DHT22;6757;52.258;12.840;2023-01-01T04:34:16;14.40;99.90
7461;DHT22;6757;52.258;12.840;2023-01-01T04:36:44;14.40;99.90
7461;DHT22;6757;52.258;12.840;2023-01-01T04:39:11;14.40;99.90
7461;DHT22;6757;52.258;12.840;2023-01-01T04:41:37;14.40;99.90
7461;DHT22;6757;52.258;12.840;2023-01-01T04:44:04;14.30;99.90
7461;DHT22;6757;52.258;12.840;2023-01-01T04:46:31;14.30;99.90
7461;DHT22;6757;52.258;12.840;2023-01-01T04:48:58;14.30;99.90
7461;DHT22;6757;52.258;12.840;2023-01-01T04:51:26;14.30;99.90
7461;DHT22;6757;52.258;12.840;2023-01-01T04:53:53;14.30;99.90
7461;DHT22;6757;52.258;12.840;2023-01-01T04:56:21;14.30;99.90
7461;DHT22;6757;52.258;12.840;2023-01-01T04:58:48;14.30;99.90
7461;DHT22;6757;52.258;12.840;2023-01-01T05:01:17;14.30;99.90
7461;DHT22;6757;52.258;12.840;2023-01-01T05:03:46;14.30;99.90
7461;DHT22;6757;52.258;12.840;2023-01-01T05:06:14;14.30;99.90
7461;DHT22;6757;52.258;12.840;2023-01-01T05:08:44;14.30;99.90
7461;DHT22;6757;52.258;12.840;2023-01-01T05:11:14;14.40;99.90
7461;DHT22;6757;52.258;12.840;2023-01-01T05:13:44;14.40;99.90
7461;DHT22;6757;52.258;12.840;2023-01-01T05:16:13;14.40;99.90
7461;DHT22;6757;52.258;12.840;2023-01-01T05:18:42;14.40;99.90
7461;DHT22;6757;52.258;12.840;2023-01-01T05:21:11;14.40;99.90
7461;DHT22;6757;52.258;12.840;2023-01-01T05:23:40;14.40;99.90
7461;DHT22;6757;52.258;12.840;2023-01-01T05:26:12;14.40;99.90
7461;DHT22;6757;52.258;12.840;2023-01-01T05:28:41;14.50;99.90
7461;DHT22;6757;52.258;12.840;2023-01-01T05:31:09;14.50;99.90
7461;DHT22;6757;52.258;12.840;2023-01-01T05:33:37;14.50;99.90
7461;DHT22;6757;52.258;12.840;2023-01-01T05:36:06;14.50;99.90
7461;DHT22;6757;52.258;12.840;2023-01-01T05:38:34;14.50;99.90
7461;DHT22;6757;52.258;12.840;2023-01-01T05:41:04;14.50;99.90
7461;DHT22;6757;52.258;12.840;2023-01-01T05:43:33;14.50;99.90
7461;DHT22;6757;52.258;12.840;2023-01-01T05:46:01;14.40;99.90
7461;DHT22;6757;52.258;12.840;2023-01-01T05:48:30;14.40;99.90
7461;DHT22;6757;52.258;12.840;2023-01-01T05:51:01;14.30;99.90
7461;DHT22;6757;52.258;12.840;2023-01-01T05:53:29;14.30;99.90
7461;DHT22;6757;52.258;12.840;2023-01-01T05:55:56;14.30;99.90
7461;DHT22;6757;52.258;12.840;2023-01-01T05:58:24;14.30;99.90
7461;DHT22;6757;52.258;12.840;2023-01-01T06:00:53;14.30;99.90
7461;DHT22;6757;52.258;12.840;2023-01-01T06:03:20;14.30;99.90
7461;DHT22;6757;52.258;12.840;2023-01-01T06:05:47;14.30;99.90
7461;DHT22;6757;52.258;12.840;2023-01-01T06:08:14;14.30;99.90
7461;DHT22;6757;52.258;12.840;2023-01-01T06:10:41;14.30;99.90
7461;DHT22;6757;52.258;12.840;2023-01-01T06:13:08;14.30;99.90
7461;DHT22;6757;52.258;12.840;2023-01-01T06:15:35;14.30;99.90
7461;DHT22;6757;52.258;12.840;2023-01-01T06:18:03;14.30;99.90
7461;DHT22;6757;52.258;12.840;2023-01-01T06:20:30;14.20;99.90
7461;DHT22;6757;52.258;12.840;2023-01-01T06:22:57;14.20;99.90
7461;DHT22;6757;52.258;12.840;2023-01-01T06:25:24;14.20;99.90
7461;DHT22;6757;52.258;12.840;2023-01-01T06:27:51;14.10;99.90
7461;DHT22;6757;52.258;12.840;2023-01-01T06:30:17;14.10;99.90
7461;DHT22;6757;52.258;12.840;2023-01-01T06:32:44;14.10;99.90
7461;DHT22;6757;52.258;12.840;2023-01-01T06:35:13;14.10;99.90
7461;DHT22;6757;52.258;12.840;2023-01-01T06:37:39;14.10;99.90
7461;DHT22;6757;52.258;12.840;2023-01-01T06:40:08;14.10;99.90
7461;DHT22;6757;52.258;12.840;2023-01-01T06:42:35;14.10;99.90
7461;DHT22;6757;52.258;12.840;2023-01-01T06:45:02;14.10;99.90
7461;DHT22;6757;52.258;12.840;2023-01-01T06:47:32;14.10;99.90
7461;DHT22;6757;52.258;12.840;2023-01-01T06:49:59;14.20;99.90
7461;DHT22;6757;52.258;12.840;2023-01-01T06:52:27;14.10;99.90
7461;DHT22;6757;52.258;12.840;2023-01-01T06:54:54;14.20;99.90
7461;DHT22;6757;52.258;12.840;2023-01-01T06:57:22;14.20;99.90
7461;DHT22;6757;52.258;12.840;2023-01-01T06:59:49;14.20;99.90
7461;DHT22;6757;52.258;12.840;2023-01-01T07:02:16;14.20;99.90
7461;DHT22;6757;52.258;12.840;2023-01-01T07:04:43;14.20;99.90
7461;DHT22;6757;52.258;12.840;2023-01-01T07:07:10;14.30;99.90
7461;DHT22;6757;52.258;12.840;2023-01-01T07:09:38;14.30;99.90
7461;DHT22;6757;52.258;12.840;2023-01-01T07:12:06;14.30;99.90
7461;DHT22;6757;52.258;12.840;2023-01-01T07:14:33;14.30;99.90
7461;DHT22;6757;52.258;12.840;2023-01-01T07:16:59;14.40;99.90
7461;DHT22;6757;52.258;12.840;2023-01-01T07:19:26;14.40;99.90
7461;DHT22;6757;52.258;12.840;2023-01-01T07:21:54;14.40;99.90
7461;DHT22;6757;52.258;12.840;2023-01-01T07:24:21;14.40;99.90
7461;DHT22;6757;52.258;12.840;2023-01-01T07:26:50;14.40;99.90
7461;DHT22;6757;52.258;12.840;2023-01-01T07:29:17;14.50;99.90
7461;DHT22;6757;52.258;12.840;2023-01-01T07:31:44;14.50;99.90
7461;DHT22;6757;52.258;12.840;2023-01-01T07:34:13;14.50;99.90
7461;DHT22;6757;52.258;12.840;2023-01-01T07:36:40;14.60;99.90
7461;DHT22;6757;52.258;12.840;2023-01-01T07:39:07;14.60;99.90
7461;DHT22;6757;52.258;12.840;2023-01-01T07:41:35;14.60;99.90
7461;DHT22;6757;52.258;12.840;2023-01-01T07:44:03;14.60;99.90
7461;DHT22;6757;52.258;12.840;2023-01-01T07:46:33;14.70;99.90
7461;DHT22;6757;52.258;12.840;2023-01-01T07:49:01;14.70;99.90
7461;DHT22;6757;52.258;12.840;2023-01-01T07:51:28;14.70;99.90
7461;DHT22;6757;52.258;12.840;2023-01-01T07:53:55;14.70;99.90
7461;DHT22;6757;52.258;12.840;2023-01-01T07:56:22;14.70;99.90
7461;DHT22;6757;52.258;12.840;2023-01-01T07:58:49;14.70;99.90
7461;DHT22;6757;52.258;12.840;2023-01-01T08:01:17;14.70;99.90
7461;DHT22;6757;52.258;12.840;2023-01-01T08:03:49;14.70;99.90
7461;DHT22;6757;52.258;12.840;2023-01-01T08:06:18;14.70;99.90
7461;DHT22;6757;52.258;12.840;2023-01-01T08:08:46;14.80;99.90
7461;DHT22;6757;52.258;12.840;2023-01-01T08:11:13;14.80;99.90
7461;DHT22;6757;52.258;12.840;2023-01-01T08:13:40;14.80;99.90
7461;DHT22;6757;52.258;12.840;2023-01-01T08:16:07;14.80;99.90
7461;DHT22;6757;52.258;12.840;2023-01-01T08:18:35;14.90;99.90
7461;DHT22;6757;52.258;12.840;2023-01-01T08:21:03;14.80;99.90
7461;DHT22;6757;52.258;12.840;2023-01-01T08:23:30;14.80;99.90
7461;DHT22;6757;52.258;12.840;2023-01-01T08:25:58;14.80;99.90
7461;DHT22;6757;52.258;12.840;2023-01-01T08:28:26;14.80;99.90
7461;DHT22;6757;52.258;12.840;2023-01-01T08:30:53;14.80;99.90
7461;DHT22;6757;52.258;12.840;2023-01-01T08:33:20;14.70;99.90
7461;DHT22;6757;52.258;12.840;2023-01-01T08:35:50;14.80;99.90
7461;DHT22;6757;52.258;12.840;2023-01-01T08:38:17;14.80;99.90
7461;DHT22;6757;52.258;12.840;2023-01-01T08:40:44;14.80;99.90
7461;DHT22;6757;52.258;12.840;2023-01-01T08:43:11;14.80;99.90
7461;DHT22;6757;52.258;12.840;2023-01-01T08:45:38;14.80;99.90
7461;DHT22;6757;52.258;12.840;2023-01-01T08:48:05;14.80;99.90
7461;DHT22;6757;52.258;12.840;2023-01-01T08:50:32;14.80;99.90
7461;DHT22;6757;52.258;12.840;2023-01-01T08:53:01;14.80;99.90
7461;DHT22;6757;52.258;12.840;2023-01-01T08:55:28;14.80;99.90
7461;DHT22;6757;52.258;12.840;2023-01-01T08:57:55;14.90;99.90
7461;DHT22;6757;52.258;12.840;2023-01-01T09:00:22;14.90;99.90
7461;DHT22;6757;52.258;12.840;2023-01-01T09:02:49;14.90;99.90
7461;DHT22;6757;52.258;12.840;2023-01-01T09:05:16;14.90;99.90
7461;DHT22;6757;52.258;12.840;2023-01-01T09:07:43;14.90;99.90
7461;DHT22;6757;52.258;12.840;2023-01-01T09:10:11;14.90;99.90
7461;DHT22;6757;52.258;12.840;2023-01-01T09:12:38;14.90;99.90
7461;DHT22;6757;52.258;12.840;2023-01-01T09:15:08;14.90;99.90
7461;DHT22;6757;52.258;12.840;2023-01-01T09:17:39;14.90;99.90
7461;DHT22;6757;52.258;12.840;2023-01-01T09:20:07;15.00;99.90
7461;DHT22;6757;52.258;12.840;2023-01-01T09:22:34;15.00;99.90
7461;DHT22;6757;52.258;12.840;2023-01-01T09:25:01;15.00;99.90
7461;DHT22;6757;52.258;12.840;2023-01-01T09:27:29;15.10;99.90
7461;DHT22;6757;52.258;12.840;2023-01-01T09:29:56;15.00;99.90
7461;DHT22;6757;52.258;12.840;2023-01-01T09:32:23;15.00;99.90
7461;DHT22;6757;52.258;12.840;2023-01-01T09:34:50;15.00;99.90
7461;DHT22;6757;52.258;12.840;2023-01-01T09:37:17;15.00;99.90
7461;DHT22;6757;52.258;12.840;2023-01-01T09:39:44;15.10;99.90
7461;DHT22;6757;52.258;12.840;2023-01-01T09:42:30;15.10;99.90
7461;DHT22;6757;52.258;12.840;2023-01-01T09:45:18;15.10;99.90
7461;DHT22;6757;52.258;12.840;2023-01-01T09:47:50;15.10;99.90
7461;DHT22;6757;52.258;12.840;2023-01-01T09:50:21;15.10;99.90
7461;DHT22;6757;52.258;12.840;2023-01-01T09:52:54;15.20;99.90
7461;DHT22;6757;52.258;12.840;2023-01-01T09:55:26;15.20;99.90
7461;DHT22;6757;52.258;12.840;2023-01-01T09:57:56;15.30;99.90
7461;DHT22;6757;52.258;12.840;2023-01-01T10:00:24;15.30;99.90
7461;DHT22;6757;52.258;12.840;2023-01-01T10:03:16;15.30;99.90
7461;DHT22;6757;52.258;12.840;2023-01-01T10:05:52;15.30;99.90
7461;DHT22;6757;52.258;12.840;2023-01-01T10:08:33;15.30;99.90
7461;DHT22;6757;52.258;12.840;2023-01-01T10:11:11;15.40;99.90
7461;DHT22;6757;52.258;12.840;2023-01-01T10:13:45;15.40;99.90
7461;DHT22;6757;52.258;12.840;2023-01-01T10:16:16;15.40;99.90
7461;DHT22;6757;52.258;12.840;2023-01-01T10:18:51;15.40;99.90
7461;DHT22;6757;52.258;12.840;2023-01-01T10:21:23;15.50;99.90
7461;DHT22;6757;52.258;12.840;2023-01-01T10:23:54;15.50;99.90
7461;DHT22;6757;52.258;12.840;2023-01-01T10:26:23;15.50;99.90
7461;DHT22;6757;52.258;12.840;2023-01-01T10:28:57;15.50;99.90
7461;DHT22;6757;52.258;12.840;2023-01-01T10:31:30;15.50;99.90
7461;DHT22;6757;52.258;12.840;2023-01-01T10:34:04;15.60;99.90
7461;DHT22;6757;52.258;12.840;2023-01-01T10:36:38;15.60;99.90
7461;DHT22;6757;52.258;12.840;2023-01-01T10:39:07;15.60;99.90
7461;DHT22;6757;52.258;12.840;2023-01-01T10:41:35;15.60;99.90
7461;DHT22;6757;52.258;12.840;2023-01-01T10:44:05;15.60;99.90
7461;DHT22;6757;52.258;12.840;2023-01-01T10:46:34;15.60;99.90
7461;DHT22;6757;52.258;12.840;2023-01-01T10:49:05;15.60;99.90
7461;DHT22;6757;52.258;12.840;2023-01-01T10:51:36;15.60;99.90
7461;DHT22;6757;52.258;12.840;2023-01-01T10:54:22;15.60;99.90
7461;DHT22;6757;52.258;12.840;2023-01-01T10:56:51;15.50;99.90
7461;DHT22;6757;52.258;12.840;2023-01-01T10:59:37;15.50;99.90
7461;DHT22;6757;52.258;12.840;2023-01-01T11:02:18;15.50;99.90
7461;DHT22;6757;52.258;12.840;2023-01-01T11:04:46;15.50;99.90
7461;DHT22;6757;52.258;12.840;2023-01-01T11:07:20;15.60;99.90
7461;DHT22;6757;52.258;12.840;2023-01-01T11:09:55;15.50;99.90
7461;DHT22;6757;52.258;12.840;2023-01-01T11:12:28;15.50;99.90
7461;DHT22;6757;52.258;12.840;2023-01-01T11:14:58;15.50;99.90
7461;DHT22;6757;52.258;12.840;2023-01-01T11:17:27;15.50;99.90
7461;DHT22;6757;52.258;12.840;2023-01-01T11:19:56;15.40;99.90
7461;DHT22;6757;52.258;12.840;2023-01-01T11:22:41;15.40;99.90
7461;DHT22;6757;52.258;12.840;2023-01-01T11:25:20;15.40;99.90
7461;DHT22;6757;52.258;12.840;2023-01-01T11:27:52;15.40;99.90
7461;DHT22;6757;52.258;12.840;2023-01-01T11:30:41;15.40;99.90
7461;DHT22;6757;52.258;12.840;2023-01-01T11:33:23;15.40;99.90
7461;DHT22;6757;52.258;12.840;2023-01-01T11:35:53;15.40;99.90
7461;DHT22;6757;52.258;12.840;2023-01-01T11:38:23;15.40;99.90
7461;DHT22;6757;52.258;12.840;2023-01-01T11:40:52;15.40;99.90
7461;DHT22;6757;52.258;12.840;2023-01-01T11:43:23;15.40;99.90
7461;DHT22;6757;52.258;12.840;2023-01-01T11:45:54;15.40;99.90
7461;DHT22;6757;52.258;12.840;2023-01-01T11:48:26;15.40;99.90
7461;DHT22;6757;52.258;12.840;2023-01-01T11:50:55;15.50;99.90
7461;DHT22;6757;52.258;12.840;2023-01-01T11:53:28;15.50;99.90
7461;DHT22;6757;52.258;12.840;2023-01-01T11:56:04;15.50;99.90
7461;DHT22;6757;52.258;12.840;2023-01-01T11:58:40;15.50;99.90
7461;DHT22;6757;52.258;12.840;2023-01-01T12:01:18;15.50;99.90
7461;DHT22;6757;52.258;12.840;2023-01-01T12:03:52;15.50;99.90
7461;DHT22;6757;52.258;12.840;2023-01-01T12:06:24;15.50;99.90
7461;DHT22;6757;52.258;12.840;2023-01-01T12:08:57;15.50;99.90
7461;DHT22;6757;52.258;12.840;2023-01-01T12:11:32;15.50;99.90
7461;DHT22;6757;52.258;12.840;2023-01-01T12:14:08;15.50;99.90
7461;DHT22;6757;52.258;12.840;2023-01-01T12:16:47;15.50;99.90
7461;DHT22;6757;52.258;12.840;2023-01-01T12:19:22;15.50;99.90
7461;DHT22;6757;52.258;12.840;2023-01-01T12:21:55;15.50;99.90
7461;DHT22;6757;52.258;12.840;2023-01-01T12:24:30;15.50;99.90
7461;DHT22;6757;52.258;12.840;2023-01-01T12:27:13;15.50;99.90
7461;DHT22;6757;52.258;12.840;2023-01-01T12:29:58;15.40;99.90
7461;DHT22;6757;52.258;12.840;2023-01-01T12:32:45;15.40;99.90
7461;DHT22;6757;52.258;12.840;2023-01-01T12:35:38;15.40;99.90
7461;DHT22;6757;52.258;12.840;2023-01-01T12:38:17;15.40;99.90
7461;DHT22;6757;52.258;12.840;2023-01-01T12:40:54;15.40;99.90
7461;DHT22;6757;52.258;12.840;2023-01-01T12:43:33;15.40;99.90
7461;DHT22;6757;52.258;12.840;2023-01-01T12:46:31;15.40;99.90
7461;DHT22;6757;52.258;12.840;2023-01-01T12:49:31;15.40;99.90
7461;DHT22;6757;52.258;12.840;2023-01-01T12:52:13;15.40;99.90
7461;DHT22;6757;52.258;12.840;2023-01-01T12:55:19;15.40;99.90
7461;DHT22;6757;52.258;12.840;2023-01-01T12:57:56;15.40;99.90
7461;DHT22;6757;52.258;12.840;2023-01-01T13:00:27;15.40;99.90
7461;DHT22;6757;52.258;12.840;2023-01-01T13:02:58;15.40;99.90
7461;DHT22;6757;52.258;12.840;2023-01-01T13:05:33;15.40;99.90
7461;DHT22;6757;52.258;12.840;2023-01-01T13:08:03;15.40;99.90
7461;DHT22;6757;52.258;12.840;2023-01-01T13:10:34;15.40;99.90
7461;DHT22;6757;52.258;12.840;2023-01-01T13:13:03;15.40;99.90
7461;DHT22;6757;52.258;12.840;2023-01-01T13:15:42;15.40;99.90
7461;DHT22;6757;52.258;12.840;2023-01-01T13:18:25;15.40;99.90
7461;DHT22;6757;52.258;12.840;2023-01-01T13:21:01;15.40;99.90
7461;DHT22;6757;52.258;12.840;2023-01-01T13:23:49;15.40;99.90
7461;DHT22;6757;52.258;12.840;2023-01-01T13:26:31;15.40;99.90
7461;DHT22;6757;52.258;12.840;2023-01-01T13:29:24;15.40;99.90
7461;DHT22;6757;52.258;12.840;2023-01-01T13:32:11;15.40;99.90
7461;DHT22;6757;52.258;12.840;2023-01-01T13:35:13;15.40;99.90
7461;DHT22;6757;52.258;12.840;2023-01-01T13:37:46;15.40;99.90
7461;DHT22;6757;52.258;12.840;2023-01-01T13:40:47;15.40;99.90
7461;DHT22;6757;52.258;12.840;2023-01-01T13:43:30;15.30;99.90
7461;DHT22;6757;52.258;12.840;2023-01-01T13:45:58;15.30;99.90
7461;DHT22;6757;52.258;12.840;2023-01-01T13:51:56;15.30;99.90
7461;DHT22;6757;52.258;12.840;2023-01-01T13:58:17;15.20;99.90
7461;DHT22;6757;52.258;12.840;2023-01-01T14:04:35;15.20;99.90
7461;DHT22;6757;52.258;12.840;2023-01-01T14:07:15;15.20;99.90
7461;DHT22;6757;52.258;12.840;2023-01-01T14:09:46;15.10;99.90
7461;DHT22;6757;52.258;12.840;2023-01-01T14:12:16;15.10;99.90
7461;DHT22;6757;52.258;12.840;2023-01-01T14:14:43;15.10;99.90
7461;DHT22;6757;52.258;12.840;2023-01-01T14:17:13;15.10;99.90
7461;DHT22;6757;52.258;12.840;2023-01-01T14:19:41;15.10;99.90
7461;DHT22;6757;52.258;12.840;2023-01-01T14:22:10;15.00;99.90
7461;DHT22;6757;52.258;12.840;2023-01-01T14:24:44;15.00;99.90
7461;DHT22;6757;52.258;12.840;2023-01-01T14:27:17;15.00;99.90
7461;DHT22;6757;52.258;12.840;2023-01-01T14:29:46;15.00;99.90
7461;DHT22;6757;52.258;12.840;2023-01-01T14:32:19;15.00;99.90
7461;DHT22;6757;52.258;12.840;2023-01-01T14:34:57;14.90;99.90
7461;DHT22;6757;52.258;12.840;2023-01-01T14:37:26;14.90;99.90
7461;DHT22;6757;52.258;12.840;2023-01-01T14:40:14;14.90;99.90
7461;DHT22;6757;52.258;12.840;2023-01-01T14:42:43;14.80;99.90
7461;DHT22;6757;52.258;12.840;2023-01-01T14:45:14;14.80;99.90
7461;DHT22;6757;52.258;12.840;2023-01-01T14:47:46;14.80;99.90
7461;DHT22;6757;52.258;12.840;2023-01-01T14:50:19;14.80;99.90
7461;DHT22;6757;52.258;12.840;2023-01-01T14:52:51;14.70;99.90
7461;DHT22;6757;52.258;12.840;2023-01-01T14:55:24;14.70;99.90
7461;DHT22;6757;52.258;12.840;2023-01-01T14:57:56;14.70;99.90
7461;DHT22;6757;52.258;12.840;2023-01-01T15:00:25;14.60;99.90
7461;DHT22;6757;52.258;12.840;2023-01-01T15:02:54;14.60;99.90
7461;DHT22;6757;52.258;12.840;2023-01-01T15:05:35;14.60;99.90
7461;DHT22;6757;52.258;12.840;2023-01-01T15:08:04;14.50;99.90
7461;DHT22;6757;52.258;12.840;2023-01-01T15:10:35;14.50;99.90
7461;DHT22;6757;52.258;12.840;2023-01-01T15:13:04;14.50;99.90
7461;DHT22;6757;52.258;12.840;2023-01-01T15:15:34;14.50;99.90
7461;DHT22;6757;52.258;12.840;2023-01-01T15:18:06;14.50;99.90
7461;DHT22;6757;52.258;12.840;2023-01-01T15:20:41;14.40;99.90
7461;DHT22;6757;52.258;12.840;2023-01-01T15:23:14;14.40;99.90
7461;DHT22;6757;52.258;12.840;2023-01-01T15:25:43;14.40;99.90
7461;DHT22;6757;52.258;12.840;2023-01-01T15:28:18;14.30;99.90
7461;DHT22;6757;52.258;12.840;2023-01-01T15:30:50;14.30;99.90
7461;DHT22;6757;52.258;12.840;2023-01-01T15:33:18;14.30;99.90
7461;DHT22;6757;52.258;12.840;2023-01-01T15:35:46;14.30;99.90
7461;DHT22;6757;52.258;12.840;2023-01-01T15:38:17;14.30;99.90
7461;DHT22;6757;52.258;12.840;2023-01-01T15:40:48;14.30;99.90
7461;DHT22;6757;52.258;12.840;2023-01-01T15:43:20;14.30;99.90
7461;DHT22;6757;52.258;12.840;2023-01-01T15:45:56;14.20;99.90
7461;DHT22;6757;52.258;12.840;2023-01-01T15:48:34;14.10;99.90
7461;DHT22;6757;52.258;12.840;2023-01-01T15:51:13;14.10;99.90
7461;DHT22;6757;52.258;12.840;2023-01-01T15:53:50;14.10;99.90
7461;DHT22;6757;52.258;12.840;2023-01-01T15:56:22;14.10;99.90
7461;DHT22;6757;52.258;12.840;2023-01-01T15:58:54;14.10;99.90
7461;DHT22;6757;52.258;12.840;2023-01-01T16:01:27;14.00;99.90
7461;DHT22;6757;52.258;12.840;2023-01-01T16:04:01;14.00;99.90
7461;DHT22;6757;52.258;12.840;2023-01-01T16:06:33;14.00;99.90
7461;DHT22;6757;52.258;12.840;2023-01-01T16:09:10;13.90;99.90
7461;DHT22;6757;52.258;12.840;2023-01-01T16:11:39;13.90;99.90
7461;DHT22;6757;52.258;12.840;2023-01-01T16:14:06;13.90;99.90
7461;DHT22;6757;52.258;12.840;2023-01-01T16:16:33;13.80;99.90
7461;DHT22;6757;52.258;12.840;2023-01-01T16:19:01;13.80;99.90
7461;DHT22;6757;52.258;12.840;2023-01-01T16:21:30;13.80;99.90
7461;DHT22;6757;52.258;12.840;2023-01-01T16:23:58;13.70;99.90
7461;DHT22;6757;52.258;12.840;2023-01-01T16:26:25;13.70;99.90